Terminal Aerodrome Forecast
Issued by NWS Jackson, KY

Home | Current Version | Previous Version | Text Only | Print | Product List | Glossary On
Versions: 1 2 3 4 5 6 7 8 9 10 11 12 13 14 15
000
FTUS43 KJKL 261120
TAFJKL
TAF
KJKL 261120Z 2612/2712 VRB03KT P6SM SKC
     FM270500 16006KT P6SM FEW250
     FM270900 18006KT P6SM FEW250 WS020/20035KT
     FM271000 18007KT P6SM FEW200=

USA.gov is the U.S. government's official web portal to all federal, state and local government web resources and services.